createdAt,value
2023-02-27T00:03:02.480Z,99502.36
2023-02-27T00:08:09.897Z,99507.86
2023-02-27T00:13:17.171Z,99504.80
2023-02-27T00:18:24.875Z,99502.92
2023-02-27T00:23:32.261Z,99503.77
2023-02-27T00:28:40.043Z,99506.61
2023-02-27T00:33:47.732Z,99506.85
2023-02-27T00:38:55.519Z,99502.11
2023-02-27T00:44:03.404Z,99506.73
2023-02-27T00:49:11.017Z,99512.79
2023-02-27T00:54:18.720Z,99512.98
2023-02-27T00:59:26.490Z,99507.86
2023-02-27T01:04:35.075Z,99515.16
2023-02-27T01:09:42.602Z,99514.33
2023-02-27T01:14:50.156Z,99509.63
2023-02-27T01:19:57.693Z,99519.02
2023-02-27T01:25:05.701Z,99524.30
2023-02-27T01:30:15.912Z,99525.91
2023-02-27T01:35:23.194Z,99530.00
2023-02-27T01:40:29.426Z,99542.42
2023-02-27T01:45:41.129Z,99545.68
2023-02-27T01:50:54.887Z,99548.50
2023-02-27T01:56:07.544Z,99546.35
2023-02-27T02:01:15.334Z,99548.66
2023-02-27T02:06:24.392Z,99554.55
2023-02-27T02:11:31.981Z,99553.70
2023-02-27T02:16:54.779Z,99558.27
2023-02-27T02:22:37.857Z,99555.10
2023-02-27T02:28:02.301Z,99549.61
2023-02-27T02:33:36.936Z,99550.45
2023-02-27T02:38:58.665Z,99561.39
2023-02-27T02:44:13.437Z,99568.27
2023-02-27T02:49:29.792Z,99567.15
2023-02-27T02:54:43.576Z,99569.79
2023-02-27T02:59:58.519Z,99575.13
2023-02-27T03:05:11.347Z,99579.57
2023-02-27T03:10:22.731Z,99583.77
2023-02-27T03:15:32.927Z,99589.65
2023-02-27T03:20:44.100Z,99594.04
2023-02-27T03:25:52.990Z,99599.86
2023-02-27T03:31:09.025Z,99606.56
2023-02-27T03:36:27.811Z,99618.80
2023-02-27T03:41:39.941Z,99623.32
2023-02-27T03:46:47.330Z,99627.60
2023-02-27T03:51:55.339Z,99631.84
2023-02-27T03:57:05.863Z,99638.62
2023-02-27T04:02:13.486Z,99642.22
2023-02-27T04:07:32.375Z,99649.09
2023-02-27T04:13:07.092Z,99658.91
2023-02-27T04:18:26.596Z,99665.29
2023-02-27T04:23:41.506Z,99672.73
2023-02-27T04:28:58.325Z,99682.55
2023-02-27T04:34:13.991Z,99687.89
2023-02-27T04:39:27.870Z,99688.02
2023-02-27T04:44:38.142Z,99690.27
2023-02-27T04:49:48.960Z,99694.71
2023-02-27T04:55:01.128Z,99688.27
2023-02-27T05:00:14.015Z,99687.34
2023-02-27T05:05:26.608Z,99686.74
2023-02-27T05:10:41.542Z,99689.25
2023-02-27T05:15:51.296Z,99681.60
2023-02-27T05:21:07.334Z,99685.70
2023-02-27T05:26:21.157Z,99695.77
2023-02-27T05:31:36.774Z,99706.28
2023-02-27T05:36:49.552Z,99710.08
2023-02-27T05:42:01.600Z,99714.71
2023-02-27T05:47:13.578Z,99717.34
2023-02-27T05:52:24.546Z,99719.86
2023-02-27T05:57:37.613Z,99726.91
2023-02-27T06:02:46.329Z,99727.20
2023-02-27T06:07:54.256Z,99732.56
2023-02-27T06:13:01.693Z,99737.37
2023-02-27T06:18:10.925Z,99742.11
2023-02-27T06:23:19.136Z,99749.13
2023-02-27T06:28:26.458Z,99746.55
2023-02-27T06:33:33.837Z,99746.77
2023-02-27T06:38:41.329Z,99740.52
2023-02-27T06:43:49.047Z,99748.98
2023-02-27T06:48:56.472Z,99745.80
2023-02-27T06:54:03.669Z,99744.77
2023-02-27T06:59:09.763Z,99750.45
2023-02-27T07:04:18.983Z,99757.59
2023-02-27T07:09:26.406Z,99765.00
2023-02-27T07:14:34.022Z,99763.69
2023-02-27T07:19:41.387Z,99770.71
2023-02-27T07:24:48.944Z,99770.77
2023-02-27T07:29:56.290Z,99772.14
2023-02-27T07:35:04.803Z,99776.41
2023-02-27T07:40:14.647Z,99781.63
2023-02-27T07:45:22.722Z,99786.32
2023-02-27T07:50:30.211Z,99794.09
2023-02-27T07:55:37.551Z,99789.30
2023-02-27T08:00:45.097Z,99799.70
2023-02-27T08:05:52.968Z,99808.55
2023-02-27T08:11:00.103Z,99813.54
2023-02-27T08:16:09.143Z,99816.77
2023-02-27T08:21:17.493Z,99825.20
2023-02-27T08:26:29.809Z,99826.05
2023-02-27T08:31:37.269Z,99837.55
2023-02-27T08:36:45.054Z,99839.30
2023-02-27T08:41:54.185Z,99843.23
2023-02-27T08:47:02.042Z,99841.89
2023-02-27T08:52:10.223Z,99839.79
2023-02-27T08:57:18.260Z,99842.36
2023-02-27T09:02:26.681Z,99844.87
2023-02-27T09:07:36.943Z,99850.55
2023-02-27T09:12:44.408Z,99852.19
2023-02-27T09:17:51.621Z,99859.08
2023-02-27T09:22:57.221Z,99864.85
2023-02-27T09:28:04.953Z,99869.41
2023-02-27T09:33:12.941Z,99871.13
2023-02-27T09:38:20.370Z,99879.05
2023-02-27T09:43:36.265Z,99890.63
2023-02-27T09:48:49.143Z,99893.77
2023-02-27T09:54:00.410Z,99895.23
2023-02-27T09:59:17.890Z,99898.09
2023-02-27T10:04:32.838Z,99902.11
2023-02-27T10:09:52.641Z,99910.23
2023-02-27T10:15:06.044Z,99911.13
2023-02-27T10:20:23.782Z,99911.49
2023-02-27T10:25:36.482Z,99913.84
2023-02-27T10:30:46.181Z,99911.27
2023-02-27T10:35:54.098Z,99913.23
2023-02-27T10:41:02.988Z,99909.25
2023-02-27T10:46:17.159Z,99915.34
2023-02-27T10:51:28.366Z,99915.25
2023-02-27T10:56:37.364Z,99911.95
2023-02-27T11:01:53.147Z,99911.75
2023-02-27T11:07:03.185Z,99918.60
2023-02-27T11:12:25.446Z,99914.19
2023-02-27T11:17:34.379Z,99910.50
2023-02-27T11:22:43.201Z,99908.11
2023-02-27T11:27:53.170Z,99908.64
2023-02-27T11:33:02.996Z,99914.66
2023-02-27T11:38:20.321Z,99908.09
2023-02-27T11:43:30.796Z,99907.81
2023-02-27T11:48:41.694Z,99904.06
2023-02-27T11:54:15.936Z,99907.22
2023-02-27T11:59:38.569Z,99905.66
2023-02-27T12:04:53.444Z,99900.31
2023-02-27T12:10:07.503Z,99902.73
2023-02-27T12:15:25.317Z,99906.33
2023-02-27T12:20:40.249Z,99903.86
2023-02-27T12:25:52.920Z,99907.94
2023-02-27T12:31:13.378Z,99911.35
2023-02-27T12:36:20.948Z,99915.03
2023-02-27T12:41:41.853Z,99923.38
2023-02-27T12:46:58.476Z,99927.67
2023-02-27T12:52:14.821Z,99932.87
2023-02-27T12:57:38.483Z,99933.84
2023-02-27T13:03:02.163Z,99938.14
2023-02-27T13:08:21.223Z,99938.85
2023-02-27T13:13:36.495Z,99938.48
2023-02-27T13:18:49.792Z,99944.59
2023-02-27T13:24:12.403Z,99951.13
2023-02-27T13:29:23.810Z,99946.34
2023-02-27T13:34:37.451Z,99944.70
2023-02-27T13:39:59.687Z,99944.58
2023-02-27T13:45:30.050Z,99944.40
2023-02-27T13:50:54.648Z,99947.23
2023-02-27T13:56:25.924Z,99940.32
2023-02-27T14:01:35.254Z,99939.25
2023-02-27T14:06:49.679Z,99943.88
2023-02-27T14:12:04.992Z,99942.95
2023-02-27T14:17:13.807Z,99949.86
2023-02-27T14:22:48.547Z,99957.13
2023-02-27T14:27:59.891Z,99962.20
2023-02-27T14:33:33.350Z,99968.34
2023-02-27T14:38:48.390Z,99975.76
2023-02-27T14:43:58.333Z,99975.16
2023-02-27T14:49:09.666Z,99986.70
2023-02-27T14:54:21.583Z,99991.66
2023-02-27T14:59:31.641Z,99995.65
2023-02-27T15:04:38.965Z,99996.45
2023-02-27T15:09:50.371Z,99999.89
2023-02-27T15:14:59.803Z,100001.05
2023-02-27T15:20:27.951Z,100005.91
2023-02-27T15:25:38.340Z,100011.73
2023-02-27T15:30:48.855Z,100020.93
2023-02-27T15:35:57.074Z,100024.05
2023-02-27T15:41:05.769Z,100028.02
2023-02-27T15:46:13.626Z,100036.56
2023-02-27T15:51:21.412Z,100049.82
2023-02-27T15:56:34.647Z,100051.34
2023-02-27T16:01:42.891Z,100055.41
2023-02-27T16:06:58.713Z,100062.12
2023-02-27T16:12:29.635Z,100064.06
2023-02-27T16:17:37.029Z,100068.24
2023-02-27T16:23:04.737Z,100071.38
2023-02-27T16:28:14.309Z,100076.56
2023-02-27T16:33:24.735Z,100084.56
2023-02-27T16:38:32.243Z,100089.02
2023-02-27T16:43:40.211Z,100095.51
2023-02-27T16:48:47.583Z,100102.91
2023-02-27T16:53:56.042Z,100112.38
2023-02-27T16:59:04.394Z,100116.79
2023-02-27T17:04:24.992Z,100124.17
2023-02-27T17:09:33.038Z,100124.82
2023-02-27T17:14:40.420Z,100132.24
2023-02-27T17:19:48.079Z,100138.51
2023-02-27T17:24:55.721Z,100145.08
2023-02-27T17:30:02.828Z,100151.60
2023-02-27T17:35:09.540Z,100155.20
2023-02-27T17:40:16.967Z,100157.23
2023-02-27T17:45:27.271Z,100162.42
2023-02-27T17:50:34.726Z,100161.90
2023-02-27T17:55:43.406Z,100161.20
2023-02-27T18:00:50.745Z,100165.42
2023-02-27T18:05:58.627Z,100168.67
2023-02-27T18:11:10.898Z,100173.26
2023-02-27T18:16:19.038Z,100175.65
2023-02-27T18:21:26.369Z,100181.18
2023-02-27T18:26:35.290Z,100187.45
2023-02-27T18:31:44.682Z,100189.54
2023-02-27T18:36:52.928Z,100193.19
2023-02-27T18:42:00.141Z,100200.66
2023-02-27T18:47:08.170Z,100204.05
2023-02-27T18:52:15.855Z,100207.38
2023-02-27T18:57:23.393Z,100209.01
2023-02-27T19:02:29.217Z,100211.64
2023-02-27T19:07:36.805Z,100216.70
2023-02-27T19:12:44.508Z,100221.39
2023-02-27T19:17:51.912Z,100231.24
2023-02-27T19:23:00.444Z,100234.33
2023-02-27T19:28:08.347Z,100235.50
2023-02-27T19:33:15.959Z,100239.74
2023-02-27T19:38:23.628Z,100244.17
2023-02-27T19:43:31.540Z,100244.83
2023-02-27T19:48:39.175Z,100247.36
2023-02-27T19:53:48.737Z,100248.89
2023-02-27T19:58:57.889Z,100249.46
2023-02-27T20:04:06.544Z,100248.00
2023-02-27T20:09:15.825Z,100253.64
2023-02-27T20:19:32.382Z,100267.08
2023-02-27T20:24:39.774Z,100273.33
2023-02-27T20:29:48.551Z,100277.77
2023-02-27T20:34:57.092Z,100281.02
2023-02-27T20:40:05.133Z,100279.61
2023-02-27T20:45:13.630Z,100283.39
2023-02-27T20:50:21.450Z,100284.27
2023-02-27T20:55:30.736Z,100283.98
2023-02-27T21:00:38.675Z,100285.13
2023-02-27T21:05:51.588Z,100281.41
2023-02-27T21:11:01.002Z,100280.45
2023-02-27T21:16:11.235Z,100280.17
2023-02-27T21:21:23.111Z,100277.64
2023-02-27T21:26:35.065Z,100276.21
2023-02-27T21:31:45.365Z,100286.99
2023-02-27T21:36:53.839Z,100293.59
2023-02-27T21:42:01.632Z,100296.25
2023-02-27T21:47:10.417Z,100298.67
2023-02-27T21:52:18.479Z,100301.84
2023-02-27T21:57:26.195Z,100305.52
2023-02-27T22:02:33.817Z,100302.30
2023-02-27T22:07:41.452Z,100307.81
2023-02-27T22:12:49.233Z,100311.09
2023-02-27T22:17:56.723Z,100311.17
2023-02-27T22:23:04.867Z,100312.83
2023-02-27T22:28:12.246Z,100313.65
2023-02-27T22:33:19.722Z,100314.52
2023-02-27T22:38:28.011Z,100314.78
2023-02-27T22:43:36.043Z,100318.14
2023-02-27T22:48:43.388Z,100318.59
2023-02-27T22:53:49.161Z,100320.71
2023-02-27T22:58:57.346Z,100322.33
2023-02-27T23:04:07.414Z,100318.91
2023-02-27T23:09:18.243Z,100321.88
2023-02-27T23:14:26.206Z,100322.58
2023-02-27T23:19:34.408Z,100323.98
2023-02-27T23:24:42.809Z,100326.06
2023-02-27T23:29:50.078Z,100326.33
2023-02-27T23:34:57.771Z,100328.12
2023-02-27T23:40:07.021Z,100330.06
2023-02-27T23:45:24.564Z,100327.90
2023-02-27T23:50:31.212Z,100325.71
2023-02-27T23:55:39.454Z,100331.19
